Time;durP1;ratioP1;P1;durP2;ratioP2;P2;SDS_P1;SDS_P2;PMS_P1;PMS_P2;Temp;Humidity;BMP_temperature;BMP_pressure;BME280_temperature;BME280_humidity;BME280_pressure;Samples;Min_cycle;Max_cycle;Signal;HPM_P1;HPM_P2
2022/03/05 00:00:35;;;;;;;12.43;6.45;;;0.70;99.90;;;;;;5029108;28;20049;-78
2022/03/05 00:03:01;;;;;;;12.35;6.13;;;0.40;99.90;;;;;;5029848;28;20487;-78
2022/03/05 00:05:28;;;;;;;11.00;6.50;;;-0.40;99.90;;;;;;5013972;28;20597;-78
2022/03/05 00:07:54;;;;;;;10.13;6.32;;;-0.40;99.90;;;;;;5006419;28;20454;-77
2022/03/05 00:10:21;;;;;;;10.35;6.60;;;1.10;99.90;;;;;;4999320;28;20074;-78
2022/03/05 00:12:50;;;;;;;11.30;6.25;;;-0.40;99.90;;;;;;4997359;28;20057;-78
2022/03/05 00:15:17;;;;;;;12.57;6.47;;;-0.50;99.90;;;;;;5030313;28;20050;-78
2022/03/05 00:17:43;;;;;;;9.40;6.53;;;1.30;99.90;;;;;;5015562;28;20046;-78
2022/03/05 00:20:10;;;;;;;8.68;5.40;;;-0.50;99.90;;;;;;4999592;28;20119;-78
2022/03/05 00:22:36;;;;;;;13.27;6.90;;;-0.60;99.90;;;;;;5005910;28;20128;-78
2022/03/05 00:25:03;;;;;;;11.93;6.32;;;-0.60;99.90;;;;;;5007509;28;20101;-79
2022/03/05 00:27:29;;;;;;;12.40;6.70;;;-0.60;99.90;;;;;;5000085;28;20129;-78
2022/03/05 00:29:55;;;;;;;10.80;6.10;;;-0.70;99.90;;;;;;5003217;28;20169;-78
2022/03/05 00:32:21;;;;;;;9.90;6.43;;;-0.70;99.90;;;;;;5003562;28;20104;-78
2022/03/05 00:34:47;;;;;;;12.73;6.47;;;0.50;99.90;;;;;;5031498;28;20046;-79
2022/03/05 00:37:13;;;;;;;10.23;6.07;;;0.20;99.90;;;;;;4998728;28;20049;-78
2022/03/05 00:39:39;;;;;;;10.18;6.43;;;-0.80;99.90;;;;;;5007685;28;20079;-78
2022/03/05 00:42:05;;;;;;;10.43;6.68;;;-0.70;99.90;;;;;;5013313;28;20069;-78
2022/03/05 00:44:31;;;;;;;11.48;6.47;;;-0.70;99.90;;;;;;5011659;28;20057;-78
2022/03/05 00:46:57;;;;;;;12.15;6.60;;;-0.10;99.90;;;;;;5007417;28;20448;-78
2022/03/05 00:49:23;;;;;;;11.63;6.78;;;0.20;99.90;;;;;;4997167;28;20053;-79
2022/03/05 00:51:49;;;;;;;11.23;6.38;;;-0.40;99.90;;;;;;5016380;28;20049;-79
2022/03/05 00:54:15;;;;;;;10.68;6.45;;;-0.80;99.90;;;;;;4998436;28;20046;-79
2022/03/05 00:56:41;;;;;;;10.77;7.00;;;-0.70;99.90;;;;;;5001846;28;20487;-79
2022/03/05 00:59:07;;;;;;;12.75;6.88;;;-0.90;99.90;;;;;;5001916;28;20045;-77
2022/03/05 01:01:33;;;;;;;11.07;7.15;;;-0.30;99.90;;;;;;5019494;28;20052;-79
2022/03/05 01:03:59;;;;;;;10.45;6.43;;;-0.90;99.90;;;;;;5016772;28;20046;-79
2022/03/05 01:06:26;;;;;;;11.50;6.93;;;0.60;99.90;;;;;;5015798;28;20038;-79
2022/03/05 01:08:52;;;;;;;15.02;7.18;;;0.30;99.90;;;;;;5015317;28;20103;-79
2022/03/05 01:11:18;;;;;;;10.77;6.68;;;0.20;99.90;;;;;;5008863;28;20605;-79
2022/03/05 01:13:44;;;;;;;11.10;6.50;;;-0.30;99.90;;;;;;5001548;28;20135;-79
2022/03/05 01:16:10;;;;;;;10.40;6.97;;;-0.30;99.90;;;;;;5003475;28;20128;-79
2022/03/05 01:18:36;;;;;;;12.30;7.10;;;0.40;99.90;;;;;;5018206;28;20060;-79
2022/03/05 01:21:02;;;;;;;11.75;7.00;;;-0.90;99.90;;;;;;5017550;28;20049;-79
2022/03/05 01:23:28;;;;;;;10.32;6.68;;;-0.70;99.90;;;;;;5010015;28;20992;-79
2022/03/05 01:25:53;;;;;;;11.32;6.35;;;0.00;99.90;;;;;;4978048;28;20046;-79
2022/03/05 01:28:19;;;;;;;13.63;6.72;;;0.40;99.90;;;;;;4987820;28;20054;-76
2022/03/05 01:30:45;;;;;;;10.77;7.32;;;-1.20;99.90;;;;;;5010849;28;20533;-76
2022/03/05 01:33:15;;;;;;;11.13;6.57;;;-1.20;99.90;;;;;;5009591;28;20336;-76
2022/03/05 01:35:41;;;;;;;11.48;7.28;;;0.40;99.90;;;;;;5021080;28;20056;-75
2022/03/05 01:38:07;;;;;;;11.25;6.55;;;-0.30;99.90;;;;;;5021469;28;20462;-78
2022/03/05 01:40:33;;;;;;;14.23;7.60;;;-1.30;99.90;;;;;;4986896;28;20049;-76
2022/03/05 01:42:59;;;;;;;11.95;7.30;;;-1.30;99.90;;;;;;5005177;28;20052;-77
2022/03/05 01:45:25;;;;;;;11.35;6.32;;;-0.70;99.90;;;;;;5015662;28;20085;-79
2022/03/05 01:47:51;;;;;;;10.18;6.13;;;0.20;99.90;;;;;;5017536;28;20407;-77
2022/03/05 01:50:17;;;;;;;11.73;6.63;;;0.10;99.90;;;;;;5016730;28;20045;-77
2022/03/05 01:52:43;;;;;;;10.88;6.95;;;0.00;99.90;;;;;;5002171;28;20046;-77
2022/03/05 01:55:11;;;;;;;11.65;7.63;;;-1.40;99.90;;;;;;5018280;28;20045;-78
2022/03/05 01:57:37;;;;;;;9.95;6.85;;;-1.40;99.90;;;;;;5017869;28;20045;-77
2022/03/05 02:00:05;;;;;;;11.48;6.93;;;-0.10;99.90;;;;;;5005881;28;20499;-76
2022/03/05 02:02:31;;;;;;;11.85;7.15;;;-1.50;99.90;;;;;;5016182;28;20057;-77
2022/03/05 02:04:57;;;;;;;10.23;6.45;;;-0.20;99.90;;;;;;5004724;28;20132;-77
2022/03/05 02:07:23;;;;;;;11.70;6.63;;;-0.40;99.90;;;;;;5001629;28;20052;-78
2022/03/05 02:09:49;;;;;;;13.15;7.50;;;-1.60;99.90;;;;;;5017256;28;20133;-79
2022/03/05 02:12:14;;;;;;;10.80;6.82;;;-0.90;99.90;;;;;;5001469;28;20518;-77
2022/03/05 02:14:40;;;;;;;13.30;7.03;;;-1.30;99.90;;;;;;5015925;28;20060;-77
2022/03/05 02:17:06;;;;;;;12.00;6.63;;;-1.20;99.90;;;;;;5015847;28;20414;-77
2022/03/05 02:19:31;;;;;;;12.52;7.03;;;-0.70;99.90;;;;;;5016409;28;20053;-77
2022/03/05 02:21:57;;;;;;;10.90;6.30;;;-1.90;99.90;;;;;;5000952;28;20104;-77
2022/03/05 02:24:32;;;;;;;11.20;6.95;;;-1.30;99.90;;;;;;5016048;28;20509;-77
2022/03/05 02:26:59;;;;;;;11.55;6.65;;;-1.90;99.90;;;;;;5015170;28;20053;-76
2022/03/05 02:29:25;;;;;;;12.13;6.55;;;-1.30;99.90;;;;;;5014595;28;20077;-77
2022/03/05 02:31:53;;;;;;;11.50;6.75;;;-1.00;99.90;;;;;;5002596;28;20103;-77
2022/03/05 02:34:20;;;;;;;13.68;7.03;;;-0.40;99.90;;;;;;5016730;28;20128;-77
2022/03/05 02:36:45;;;;;;;11.95;7.38;;;-0.10;99.90;;;;;;5025851;28;20929;-77
2022/03/05 02:39:11;;;;;;;11.45;6.32;;;-0.60;99.90;;;;;;5000675;28;20128;-78
2022/03/05 02:41:37;;;;;;;11.00;6.55;;;-1.10;99.90;;;;;;5031385;28;20778;-77
2022/03/05 02:44:03;;;;;;;10.80;6.47;;;-0.20;99.90;;;;;;4991201;28;20085;-78
2022/03/05 02:46:29;;;;;;;15.05;7.57;;;-2.10;99.90;;;;;;5001633;28;20045;-77
2022/03/05 02:48:56;;;;;;;12.98;6.70;;;-0.60;99.90;;;;;;5030180;28;20049;-77
2022/03/05 02:51:22;;;;;;;12.63;6.90;;;-0.50;99.90;;;;;;5016776;28;20484;-77
2022/03/05 02:53:48;;;;;;;13.45;7.20;;;-2.20;99.90;;;;;;5031930;28;20058;-78
2022/03/05 02:56:14;;;;;;;11.35;7.00;;;-2.20;99.90;;;;;;5025204;28;20568;-78
2022/03/05 02:58:40;;;;;;;11.45;6.60;;;-0.50;99.90;;;;;;5015939;28;20129;-77
2022/03/05 03:01:06;;;;;;;14.02;7.35;;;-2.20;99.90;;;;;;5014837;28;20045;-78
2022/03/05 03:03:32;;;;;;;11.80;6.95;;;-2.30;99.90;;;;;;5008108;28;20038;-78
2022/03/05 03:05:57;;;;;;;14.10;7.07;;;-0.70;99.90;;;;;;5001557;28;20033;-77
2022/03/05 03:08:23;;;;;;;14.43;6.97;;;-1.70;99.90;;;;;;5016361;28;20045;-78
2022/03/05 03:10:49;;;;;;;12.07;7.20;;;-2.30;99.90;;;;;;5000039;28;20045;-77
2022/03/05 03:13:15;;;;;;;14.82;7.85;;;-2.40;99.90;;;;;;5014857;28;20077;-78
2022/03/05 03:15:40;;;;;;;12.15;7.47;;;-2.40;99.90;;;;;;5008819;28;20042;-77
2022/03/05 03:18:06;;;;;;;10.55;6.97;;;-2.40;99.90;;;;;;5007898;28;20050;-77
2022/03/05 03:20:32;;;;;;;12.18;7.07;;;-2.40;99.90;;;;;;5031625;28;20056;-77
2022/03/05 03:22:58;;;;;;;11.95;7.28;;;-0.60;99.90;;;;;;5016040;28;20065;-77
2022/03/05 03:25:23;;;;;;;11.60;6.70;;;-2.50;99.90;;;;;;5002528;28;20045;-78
2022/03/05 03:27:50;;;;;;;13.35;7.10;;;-1.10;99.90;;;;;;5011471;28;20045;-78
2022/03/05 03:30:18;;;;;;;11.75;6.93;;;-0.80;99.90;;;;;;5014005;28;20080;-78
2022/03/05 03:32:45;;;;;;;13.10;7.63;;;-2.10;99.90;;;;;;5001444;28;20053;-78
2022/03/05 03:35:15;;;;;;;12.13;7.28;;;-2.60;99.90;;;;;;5013784;28;20380;-77
2022/03/05 03:37:41;;;;;;;11.85;7.10;;;-2.60;99.90;;;;;;5018081;28;20053;-78
2022/03/05 03:40:09;;;;;;;12.32;7.28;;;-2.60;99.90;;;;;;5008298;28;20058;-77
2022/03/05 03:42:35;;;;;;;12.55;7.25;;;-2.60;99.90;;;;;;5016935;28;20125;-78
2022/03/05 03:45:02;;;;;;;12.93;6.80;;;-1.40;99.90;;;;;;4999542;28;20058;-78
2022/03/05 03:47:27;;;;;;;14.27;8.02;;;-1.10;99.90;;;;;;4998335;28;21001;-77
2022/03/05 03:49:53;;;;;;;13.43;7.65;;;-1.20;99.90;;;;;;5003038;28;20136;-77
2022/03/05 03:52:19;;;;;;;14.13;8.00;;;-2.60;99.90;;;;;;5015061;28;20053;-78
2022/03/05 03:54:47;;;;;;;11.07;6.38;;;-2.60;99.90;;;;;;5014232;28;20041;-77
2022/03/05 03:57:13;;;;;;;13.60;7.07;;;-2.70;99.90;;;;;;5018804;28;20041;-77
2022/03/05 03:59:39;;;;;;;13.63;7.35;;;-1.60;99.90;;;;;;5014908;28;20056;-79
2022/03/05 04:02:05;;;;;;;13.05;7.03;;;-1.70;99.90;;;;;;5014510;28;20041;-78
2022/03/05 04:04:31;;;;;;;11.88;7.22;;;-2.70;99.90;;;;;;5031257;28;20046;-78
2022/03/05 04:09:41;;;;;;;12.60;7.00;;;-1.00;99.90;;;;;;5013696;28;20050;-77
2022/03/05 04:12:07;;;;;;;13.55;7.32;;;-2.70;99.90;;;;;;5016133;28;20513;-78
2022/03/05 04:14:33;;;;;;;12.00;6.65;;;-2.70;99.90;;;;;;4985606;28;20046;-78
2022/03/05 04:16:58;;;;;;;13.65;7.43;;;-2.80;99.90;;;;;;5015639;28;20058;-76
2022/03/05 04:19:24;;;;;;;14.57;7.75;;;-1.30;99.90;;;;;;5000464;28;20053;-78
2022/03/05 04:21:50;;;;;;;10.98;6.65;;;-3.00;99.90;;;;;;5008685;28;20052;-77
2022/03/05 04:24:16;;;;;;;12.13;7.30;;;-2.80;99.90;;;;;;5013732;28;20081;-77
2022/03/05 04:26:41;;;;;;;13.55;7.50;;;-2.90;99.90;;;;;;5002069;28;20038;-79
2022/03/05 04:29:07;;;;;;;11.80;6.75;;;-2.90;99.90;;;;;;5003798;28;20371;-78
2022/03/05 04:31:33;;;;;;;13.10;7.07;;;-2.90;99.90;;;;;;5016600;28;20406;-78
2022/03/05 04:33:59;;;;;;;12.20;7.13;;;-2.80;99.90;;;;;;5026984;28;20042;-79
2022/03/05 04:36:24;;;;;;;11.32;6.07;;;-2.90;99.90;;;;;;5017565;28;20104;-79
2022/03/05 04:38:50;;;;;;;12.05;6.68;;;-3.00;99.90;;;;;;5002959;28;20049;-78
2022/03/05 04:41:17;;;;;;;13.68;6.97;;;-3.00;99.90;;;;;;4994195;28;20045;-78
2022/03/05 04:43:43;;;;;;;12.30;6.82;;;-1.70;99.90;;;;;;5033619;28;20046;-78
2022/03/05 04:46:08;;;;;;;12.32;5.90;;;-3.00;99.90;;;;;;5007502;28;20562;-78
2022/03/05 04:48:34;;;;;;;12.50;6.45;;;-2.70;99.90;;;;;;5036453;28;20049;-79
2022/03/05 04:51:00;;;;;;;11.57;6.28;;;-3.00;99.90;;;;;;5021899;28;20057;-78
2022/03/05 04:53:26;;;;;;;12.27;6.20;;;-3.00;99.90;;;;;;5018260;28;20049;-78
2022/03/05 04:55:52;;;;;;;11.88;6.28;;;-1.80;99.90;;;;;;5010479;28;20403;-78
2022/03/05 04:58:17;;;;;;;9.80;5.63;;;-3.00;99.90;;;;;;4987731;28;20045;-78
2022/03/05 05:00:43;;;;;;;11.75;6.05;;;-3.00;99.90;;;;;;5017197;28;20042;-78
2022/03/05 05:03:09;;;;;;;10.25;5.30;;;-3.00;99.90;;;;;;5019385;28;20403;-78
2022/03/05 05:05:35;;;;;;;10.68;5.47;;;-1.20;99.90;;;;;;5005661;28;20391;-78
2022/03/05 05:08:00;;;;;;;10.80;5.72;;;-1.90;99.90;;;;;;5017565;28;20045;-78
2022/03/05 05:10:26;;;;;;;10.88;6.00;;;-3.00;99.90;;;;;;5019920;28;20562;-78
2022/03/05 05:12:52;;;;;;;11.23;5.22;;;-2.40;99.90;;;;;;5017668;28;20476;-78
2022/03/05 05:15:18;;;;;;;10.23;5.30;;;-3.00;99.90;;;;;;4993971;28;20038;-78
2022/03/05 05:17:43;;;;;;;8.27;5.15;;;-3.00;99.90;;;;;;5001413;28;20053;-78
2022/03/05 05:20:11;;;;;;;12.45;6.10;;;-3.00;99.90;;;;;;5011134;28;20057;-78
2022/03/05 05:22:37;;;;;;;10.80;4.95;;;-3.00;99.90;;;;;;4988095;28;20486;-78
2022/03/05 05:25:04;;;;;;;9.48;5.93;;;-3.00;99.90;;;;;;5010783;28;20391;-78
2022/03/05 05:27:38;;;;;;;13.98;6.07;;;-2.90;99.90;;;;;;5017182;28;20797;-78
2022/03/05 05:30:06;;;;;;;12.18;6.25;;;-3.00;99.90;;;;;;5020235;28;20091;-78
2022/03/05 05:32:32;;;;;;;9.75;5.30;;;-2.90;99.90;;;;;;5016664;28;20108;-78
2022/03/05 05:34:58;;;;;;;10.00;5.15;;;-1.70;99.90;;;;;;5021106;28;20038;-78
2022/03/05 05:37:23;;;;;;;9.98;5.60;;;-2.90;99.90;;;;;;5002407;28;20042;-79
2022/03/05 05:39:49;;;;;;;10.30;5.63;;;-2.90;99.90;;;;;;5019280;28;20092;-78
2022/03/05 05:42:15;;;;;;;10.68;5.55;;;-1.80;99.90;;;;;;5010753;28;20042;-79
2022/03/05 05:44:41;;;;;;;11.15;5.55;;;-2.90;99.90;;;;;;5022146;28;20044;-78
2022/03/05 05:47:07;;;;;;;11.02;5.40;;;-1.10;99.90;;;;;;5020093;28;20041;-78
2022/03/05 05:49:33;;;;;;;9.75;5.32;;;-1.90;99.90;;;;;;5001317;28;20095;-78
2022/03/05 05:51:59;;;;;;;14.35;5.97;;;-2.90;99.90;;;;;;5032457;28;20116;-78
2022/03/05 05:54:25;;;;;;;8.57;5.10;;;-2.90;99.90;;;;;;5007317;28;20483;-79
2022/03/05 05:56:50;;;;;;;10.85;5.90;;;-3.00;99.90;;;;;;5000600;28;20049;-78
2022/03/05 05:59:16;;;;;;;10.18;6.13;;;-2.20;99.90;;;;;;5016415;28;20057;-79
2022/03/05 06:01:42;;;;;;;14.50;6.22;;;-3.00;99.90;;;;;;5000841;28;20148;-78
2022/03/05 06:04:08;;;;;;;12.63;6.00;;;-1.70;99.90;;;;;;5015774;28;20054;-78
2022/03/05 06:06:34;;;;;;;9.43;5.22;;;-3.00;99.90;;;;;;5015917;28;20668;-79
2022/03/05 06:09:00;;;;;;;11.50;6.20;;;-1.40;99.90;;;;;;5033875;28;20128;-79
2022/03/05 06:11:26;;;;;;;11.15;5.78;;;-2.90;99.90;;;;;;5015025;28;20950;-79
2022/03/05 06:13:51;;;;;;;11.57;5.75;;;-1.50;99.90;;;;;;5000461;28;20491;-78
2022/03/05 06:16:17;;;;;;;11.75;6.20;;;-2.30;99.90;;;;;;5008809;28;20057;-78
2022/03/05 06:18:43;;;;;;;9.77;5.90;;;-3.00;99.90;;;;;;5015156;28;20112;-79
2022/03/05 06:21:09;;;;;;;12.73;7.00;;;-2.90;99.90;;;;;;5001333;28;20038;-78
2022/03/05 06:23:36;;;;;;;12.07;6.32;;;-2.30;99.90;;;;;;5018312;28;20451;-79
2022/03/05 06:26:02;;;;;;;11.60;6.10;;;-2.90;99.90;;;;;;5001718;28;20107;-78
2022/03/05 06:28:28;;;;;;;12.20;5.55;;;-2.90;99.90;;;;;;5031595;28;20045;-78
2022/03/05 06:30:54;;;;;;;13.20;7.25;;;-1.60;99.90;;;;;;5015423;28;20040;-78
2022/03/05 06:33:20;;;;;;;12.00;6.25;;;-1.80;99.90;;;;;;5003264;28;20059;-79
2022/03/05 06:35:46;;;;;;;13.10;6.03;;;-2.90;99.90;;;;;;4998611;28;20196;-79
2022/03/05 06:38:11;;;;;;;11.63;6.32;;;-1.20;99.90;;;;;;5002463;28;20464;-78
2022/03/05 06:40:37;;;;;;;13.43;6.50;;;-2.90;99.90;;;;;;5003595;28;20141;-77
2022/03/05 06:43:03;;;;;;;13.10;6.63;;;-2.90;99.90;;;;;;5007924;28;20049;-76
2022/03/05 06:45:32;;;;;;;13.48;6.57;;;-1.30;99.90;;;;;;4999282;28;20045;-76
2022/03/05 06:47:58;;;;;;;11.88;6.60;;;-2.10;99.90;;;;;;5008226;28;20045;-78
2022/03/05 06:50:24;;;;;;;12.45;6.68;;;-3.30;99.90;;;;;;5013657;28;20393;-79
2022/03/05 06:52:50;;;;;;;13.57;7.43;;;-2.20;99.90;;;;;;5007478;28;20045;-78
2022/03/05 06:55:16;;;;;;;10.80;6.22;;;-1.40;99.90;;;;;;5015141;28;20041;-78
2022/03/05 06:57:44;;;;;;;11.60;6.50;;;-2.80;99.90;;;;;;5015263;28;20064;-79
2022/03/05 07:00:12;;;;;;;11.95;6.22;;;-2.80;99.90;;;;;;5001810;28;20054;-80
2022/03/05 07:02:37;;;;;;;14.13;6.75;;;-2.70;99.90;;;;;;5014297;28;20045;-79
2022/03/05 07:05:04;;;;;;;12.57;6.25;;;-1.40;99.90;;;;;;4985555;28;20037;-79
2022/03/05 07:07:29;;;;;;;13.68;5.78;;;-2.70;99.90;;;;;;5016374;28;20610;-80
2022/03/05 07:09:55;;;;;;;12.65;6.18;;;-0.90;99.90;;;;;;4986205;28;20080;-79
2022/03/05 07:12:21;;;;;;;14.43;6.80;;;-2.30;99.90;;;;;;5017533;28;20045;-79
2022/03/05 07:14:49;;;;;;;12.75;6.40;;;-2.60;99.90;;;;;;4985793;28;20049;-78
2022/03/05 07:17:18;;;;;;;12.10;6.30;;;-2.50;99.90;;;;;;5000933;28;20049;-79
2022/03/05 07:19:45;;;;;;;12.57;6.60;;;-0.80;99.90;;;;;;5003325;28;20483;-79
2022/03/05 07:22:13;;;;;;;13.13;6.32;;;-1.30;99.90;;;;;;5016513;28;20442;-82
2022/03/05 07:24:39;;;;;;;12.27;6.70;;;-2.40;99.90;;;;;;5015198;28;20171;-80
2022/03/05 07:27:05;;;;;;;12.10;6.43;;;-1.40;99.90;;;;;;4983743;28;20120;-81
2022/03/05 07:29:31;;;;;;;12.98;6.70;;;-1.90;99.90;;;;;;5002075;28;20061;-81
2022/03/05 07:31:56;;;;;;;13.23;7.32;;;-0.70;99.90;;;;;;5015810;28;20593;-77
2022/03/05 07:34:22;;;;;;;12.70;7.07;;;-2.20;99.90;;;;;;5015527;28;20416;-77
2022/03/05 07:36:48;;;;;;;10.77;6.25;;;-2.20;99.90;;;;;;5015581;28;20279;-77
2022/03/05 07:39:14;;;;;;;10.30;7.00;;;-1.40;99.90;;;;;;5003459;28;20045;-77
2022/03/05 07:41:40;;;;;;;13.65;6.93;;;-2.00;99.90;;;;;;5017361;28;20049;-78
2022/03/05 07:44:06;;;;;;;12.02;6.63;;;-2.00;99.90;;;;;;4999115;28;20094;-85
2022/03/05 07:46:35;;;;;;;11.70;6.32;;;-1.90;99.90;;;;;;5017408;28;20041;-78
2022/03/05 07:49:01;;;;;;;11.30;6.70;;;-1.80;99.90;;;;;;5008137;28;20037;-78
2022/03/05 07:51:28;;;;;;;11.68;6.22;;;-1.80;99.90;;;;;;4999867;28;20464;-79
2022/03/05 07:53:54;;;;;;;11.48;7.07;;;-0.80;99.90;;;;;;5034740;28;20064;-78
2022/03/05 07:56:20;;;;;;;11.40;5.75;;;-1.60;99.90;;;;;;4998551;28;20501;-80
2022/03/05 07:58:46;;;;;;;15.98;7.50;;;-0.80;99.90;;;;;;5006418;28;20042;-79
2022/03/05 08:01:12;;;;;;;11.45;6.30;;;-1.50;99.90;;;;;;5001978;28;20699;-80
2022/03/05 08:03:38;;;;;;;10.60;5.95;;;-1.40;99.90;;;;;;5000858;28;20064;-80
2022/03/05 08:06:04;;;;;;;12.15;6.43;;;0.30;99.90;;;;;;5009020;28;20038;-80
2022/03/05 08:08:30;;;;;;;12.48;6.00;;;0.10;99.90;;;;;;5036804;28;20505;-81
2022/03/05 08:10:56;;;;;;;11.07;6.57;;;-0.50;99.90;;;;;;5015227;28;20038;-82
2022/03/05 08:13:22;;;;;;;11.07;6.53;;;0.40;99.90;;;;;;5019335;28;20042;-84
2022/03/05 08:15:48;;;;;;;11.40;6.15;;;-0.80;99.90;;;;;;5012489;28;20125;-80
2022/03/05 08:18:14;;;;;;;11.27;6.28;;;-0.60;99.90;;;;;;5019453;28;20053;-79
2022/03/05 08:20:40;;;;;;;13.73;7.32;;;-0.50;99.90;;;;;;5019900;28;20057;-80
2022/03/05 08:23:06;;;;;;;13.25;6.97;;;-0.30;99.90;;;;;;5003719;28;20116;-80
2022/03/05 08:25:32;;;;;;;13.48;6.53;;;-0.10;99.90;;;;;;5036023;28;20053;-81
2022/03/05 08:27:58;;;;;;;10.60;6.53;;;0.90;99.90;;;;;;5018726;28;20050;-81
2022/03/05 08:30:24;;;;;;;12.98;7.15;;;1.10;99.90;;;;;;5019720;28;20073;-81
2022/03/05 08:32:50;;;;;;;9.75;6.28;;;1.50;99.90;;;;;;5020481;28;20041;-81
2022/03/05 08:35:18;;;;;;;11.75;6.70;;;2.20;99.90;;;;;;5020516;28;20491;-81
2022/03/05 08:37:44;;;;;;;12.75;6.53;;;2.10;99.90;;;;;;5019278;28;20487;-81
2022/03/05 08:40:11;;;;;;;11.73;6.45;;;2.70;99.90;;;;;;5027895;28;20092;-81
2022/03/05 08:42:38;;;;;;;11.30;6.25;;;1.50;99.90;;;;;;5027105;28;20080;-81
2022/03/05 08:45:05;;;;;;;12.73;6.15;;;1.90;99.90;;;;;;5021630;28;20041;-81
2022/03/05 08:47:32;;;;;;;11.10;6.20;;;2.00;99.90;;;;;;5020836;28;20103;-81
2022/03/05 08:49:58;;;;;;;11.38;6.15;;;2.20;99.90;;;;;;5012541;28;20728;-81
2022/03/05 08:52:24;;;;;;;11.57;6.80;;;3.20;99.90;;;;;;5004708;28;20479;-81
2022/03/05 08:54:50;;;;;;;11.13;6.35;;;3.40;99.90;;;;;;5004402;28;20168;-81
2022/03/05 08:57:15;;;;;;;10.00;5.63;;;3.30;99.90;;;;;;5005511;28;20088;-81
2022/03/05 08:59:41;;;;;;;14.95;6.93;;;3.00;99.90;;;;;;5019882;28;20042;-81
2022/03/05 09:02:08;;;;;;;10.35;6.40;;;3.20;99.90;;;;;;5037323;28;20997;-81
2022/03/05 09:04:34;;;;;;;12.68;6.13;;;3.40;99.90;;;;;;4988770;28;20053;-81
2022/03/05 09:07:00;;;;;;;12.30;6.40;;;3.60;99.90;;;;;;5004255;28;20103;-81
2022/03/05 09:09:26;;;;;;;11.02;6.53;;;3.70;99.90;;;;;;5011202;28;20057;-81
2022/03/05 09:11:52;;;;;;;11.55;6.60;;;3.90;99.90;;;;;;5004478;28;20046;-81
2022/03/05 09:14:18;;;;;;;12.77;7.10;;;3.90;99.90;;;;;;5020280;28;20056;-81
2022/03/05 09:16:43;;;;;;;13.63;7.45;;;4.00;99.90;;;;;;5002416;28;20494;-81
2022/03/05 09:19:09;;;;;;;13.13;7.10;;;5.30;99.90;;;;;;4988230;28;20054;-81
2022/03/05 09:21:36;;;;;;;14.77;7.15;;;4.20;99.90;;;;;;5020301;28;20051;-80
2022/03/05 09:24:06;;;;;;;11.73;7.07;;;4.20;99.90;;;;;;5019344;28;20045;-79
2022/03/05 09:26:33;;;;;;;12.15;6.75;;;4.30;99.90;;;;;;5036355;28;20053;-79
2022/03/05 09:28:58;;;;;;;13.27;7.80;;;4.40;99.90;;;;;;5019826;28;20041;-79
2022/03/05 09:31:24;;;;;;;13.38;7.40;;;4.80;99.90;;;;;;5004585;28;20049;-80
2022/03/05 09:33:51;;;;;;;13.48;7.82;;;4.90;99.90;;;;;;5018757;28;20068;-79
2022/03/05 09:36:17;;;;;;;12.20;7.38;;;5.20;99.90;;;;;;5003909;28;20041;-80
2022/03/05 09:38:43;;;;;;;13.40;7.88;;;5.90;99.90;;;;;;5003411;28;20056;-79
2022/03/05 09:41:08;;;;;;;13.05;7.55;;;4.50;99.90;;;;;;5017464;28;20049;-80
2022/03/05 09:43:35;;;;;;;11.40;6.93;;;5.80;99.90;;;;;;5018768;28;20053;-80
2022/03/05 09:46:02;;;;;;;14.07;7.97;;;5.60;99.90;;;;;;5018607;28;20558;-80
2022/03/05 09:48:29;;;;;;;13.43;7.78;;;4.90;99.90;;;;;;5010661;28;20053;-79
2022/03/05 09:50:56;;;;;;;12.55;7.88;;;5.00;99.90;;;;;;5003335;28;20519;-81
2022/03/05 09:53:28;;;;;;;14.27;8.25;;;5.70;99.90;;;;;;5020304;28;20188;-80
2022/03/05 09:55:53;;;;;;;13.40;8.43;;;5.40;99.90;;;;;;5018199;28;20046;-80
2022/03/05 09:58:19;;;;;;;15.07;7.68;;;5.60;99.90;;;;;;5019069;28;20064;-80
2022/03/05 10:00:45;;;;;;;13.18;7.63;;;5.90;99.90;;;;;;5018779;28;20041;-80
2022/03/05 10:03:14;;;;;;;12.63;7.32;;;6.10;99.90;;;;;;5015596;28;20053;-79
2022/03/05 10:05:41;;;;;;;11.25;7.15;;;6.60;99.90;;;;;;4987587;28;20043;-80
2022/03/05 10:08:17;;;;;;;13.23;7.35;;;6.50;99.90;;;;;;5016926;28;20456;-80
2022/03/05 10:10:59;;;;;;;12.25;8.23;;;6.70;99.90;;;;;;5005992;28;20055;-80
2022/03/05 10:13:31;;;;;;;15.27;8.10;;;6.90;99.90;;;;;;5002959;28;20060;-79
2022/03/05 10:15:59;;;;;;;12.15;7.75;;;7.10;99.90;;;;;;5024858;28;20049;-80
2022/03/05 10:18:35;;;;;;;11.82;7.50;;;7.40;99.90;;;;;;5009215;28;20062;-79
2022/03/05 10:21:05;;;;;;;13.73;7.68;;;7.50;99.90;;;;;;5018849;28;20045;-79
2022/03/05 10:23:37;;;;;;;10.88;7.50;;;6.90;99.90;;;;;;5016189;28;20105;-78
2022/03/05 10:26:08;;;;;;;12.60;7.47;;;7.80;99.90;;;;;;5003008;28;20099;-79
2022/03/05 10:28:35;;;;;;;11.02;7.15;;;7.90;99.90;;;;;;5014852;28;20097;-78
2022/03/05 10:31:09;;;;;;;12.50;7.75;;;7.90;99.90;;;;;;5009527;28;20583;-79
2022/03/05 10:33:43;;;;;;;11.88;7.28;;;7.80;99.90;;;;;;5016691;28;20053;-79
2022/03/05 10:36:23;;;;;;;15.82;8.27;;;7.80;99.90;;;;;;5004997;28;20150;-79
2022/03/05 10:38:56;;;;;;;12.63;8.25;;;7.80;99.90;;;;;;5033621;28;20046;-79
2022/03/05 10:41:31;;;;;;;14.43;8.68;;;7.70;99.90;;;;;;5019310;28;20045;-79
2022/03/05 10:44:05;;;;;;;14.73;8.80;;;7.70;99.90;;;;;;5018010;28;20054;-79
2022/03/05 10:46:39;;;;;;;15.68;9.35;;;7.80;99.90;;;;;;5017163;28;20053;-80
2022/03/05 10:49:14;;;;;;;13.40;8.43;;;7.90;99.90;;;;;;5008931;28;20057;-80
2022/03/05 10:51:39;;;;;;;14.88;9.18;;;8.10;99.90;;;;;;5017793;28;20463;-80
2022/03/05 10:54:05;;;;;;;13.20;8.73;;;8.10;99.90;;;;;;5004657;28;20050;-81
2022/03/05 10:56:33;;;;;;;14.30;8.50;;;8.20;99.90;;;;;;5003766;28;20053;-80
2022/03/05 10:59:22;;;;;;;13.93;8.65;;;8.30;99.90;;;;;;5001484;28;20046;-80
2022/03/05 11:01:48;;;;;;;13.23;8.10;;;8.40;99.90;;;;;;5017923;28;20495;-80
2022/03/05 11:04:14;;;;;;;12.50;7.95;;;8.90;99.90;;;;;;5018181;28;20125;-80
2022/03/05 11:06:42;;;;;;;15.27;9.02;;;8.80;99.90;;;;;;5017176;28;20052;-80
2022/03/05 11:09:12;;;;;;;14.20;8.65;;;9.10;99.90;;;;;;5002201;28;20061;-80
2022/03/05 11:11:43;;;;;;;15.57;8.95;;;9.40;99.90;;;;;;5001450;28;20578;-80
2022/03/05 11:14:15;;;;;;;12.13;8.50;;;9.90;99.90;;;;;;5009716;28;20077;-79
2022/03/05 11:16:43;;;;;;;13.68;8.05;;;10.30;99.90;;;;;;5000553;28;20052;-80
2022/03/05 11:19:09;;;;;;;14.75;8.40;;;10.80;99.90;;;;;;5017167;28;20166;-80
2022/03/05 11:21:35;;;;;;;14.65;8.80;;;11.30;99.90;;;;;;5001700;28;20421;-80
2022/03/05 11:24:01;;;;;;;14.13;8.60;;;11.70;99.90;;;;;;4991643;28;20076;-80
2022/03/05 11:26:31;;;;;;;12.68;8.55;;;12.00;99.90;;;;;;5002684;28;20084;-80
2022/03/05 11:28:58;;;;;;;15.68;8.68;;;12.30;99.90;;;;;;4998409;28;20056;-80
2022/03/05 11:31:30;;;;;;;12.95;8.13;;;12.60;99.90;;;;;;5036036;28;20045;-80
2022/03/05 11:34:30;;;;;;;13.95;8.52;;;12.80;99.90;;;;;;5019004;28;20058;-80
2022/03/05 11:36:55;;;;;;;14.38;8.73;;;13.20;98.90;;;;;;5015327;28;20046;-80
2022/03/05 11:39:27;;;;;;;12.98;8.40;;;13.90;98.60;;;;;;5009848;28;20120;-80
2022/03/05 11:42:02;;;;;;;12.07;8.65;;;14.70;97.10;;;;;;5001447;28;20052;-80
2022/03/05 11:44:33;;;;;;;13.00;8.75;;;15.50;91.40;;;;;;5017965;28;20057;-81
2022/03/05 11:47:18;;;;;;;15.15;8.70;;;16.30;91.50;;;;;;5008259;28;20049;-81
2022/03/05 11:50:13;;;;;;;13.93;8.82;;;17.00;77.90;;;;;;5016999;28;20045;-81
2022/03/05 11:52:39;;;;;;;14.38;9.30;;;17.90;76.10;;;;;;5015692;28;20062;-81
2022/03/05 11:55:13;;;;;;;11.77;8.32;;;18.50;71.50;;;;;;5000833;28;20041;-82
2022/03/05 11:57:51;;;;;;;11.50;7.65;;;19.10;66.10;;;;;;5000186;28;20054;-81
2022/03/05 12:00:31;;;;;;;11.35;8.23;;;19.70;64.50;;;;;;5009733;28;20045;-81
2022/03/05 12:02:58;;;;;;;15.68;8.77;;;19.50;61.10;;;;;;5001486;28;20126;-81
2022/03/05 12:05:36;;;;;;;13.65;8.85;;;19.70;60.30;;;;;;5033890;28;20053;-80
2022/03/05 12:08:06;;;;;;;14.10;9.50;;;19.80;56.60;;;;;;5015688;28;20491;-80
2022/03/05 12:10:34;;;;;;;11.38;8.27;;;19.70;58.40;;;;;;5017795;28;20045;-80
2022/03/05 12:13:08;;;;;;;13.07;8.88;;;19.80;57.80;;;;;;5000022;28;20059;-80
2022/03/05 12:15:42;;;;;;;13.32;8.52;;;19.90;57.30;;;;;;5033203;28;20042;-80
2022/03/05 12:18:14;;;;;;;11.32;8.10;;;19.90;56.20;;;;;;5007440;28;20062;-80
2022/03/05 12:20:46;;;;;;;12.98;8.85;;;19.90;56.90;;;;;;5015747;28;20049;-80
2022/03/05 12:23:17;;;;;;;12.57;8.93;;;19.90;56.20;;;;;;5017187;28;20495;-80
2022/03/05 12:25:45;;;;;;;12.48;8.32;;;19.90;55.90;;;;;;5017184;28;20104;-81
2022/03/05 12:28:24;;;;;;;12.95;9.32;;;19.90;55.90;;;;;;5015831;28;20053;-80
2022/03/05 12:30:53;;;;;;;14.48;8.45;;;19.90;53.00;;;;;;5000620;28;20053;-81
2022/03/05 12:33:20;;;;;;;12.82;9.10;;;19.80;55.10;;;;;;5016111;28;20054;-82
2022/03/05 12:35:47;;;;;;;13.43;9.23;;;19.70;55.80;;;;;;4999276;28;20049;-82
2022/03/05 12:38:21;;;;;;;12.00;8.90;;;19.80;55.90;;;;;;5008552;28;20103;-82
2022/03/05 12:40:50;;;;;;;12.52;8.95;;;19.60;54.10;;;;;;5015931;28;20404;-80
2022/03/05 12:43:16;;;;;;;11.55;8.82;;;19.70;55.80;;;;;;5016545;28;20053;-82